Greenville, Missouri
Current Conditions -  °F | °C
As of 12:01 AM on Sunday 26 Oct 2014 (Local Time) from KPOF Reporting Station
Moderate Fog Moderate Fog  
Wind Chill: 58°   Ceiling: 800
Heat Index: 58°   Visibility: 0.25mi
Dew Point: 57°   Wind: 0mph
Humidity: 97%   Direction: NA
Pressure: 29.99"   Gusts: NA
Location:  37.13°N, 90.45°W
Report Text: KPOF 260501Z AUTO 00000KT 1/4SM FG VV008 14/14 A2999 RMK AO2 T01440139
Loading
Personal Weather Stations






























Interactive Weather Map New forecast layout! Learn more

10-Day Weather Forecast

Advertisements
Track Severe Weather on mobile